createdAt,value
2018-09-21T00:01:11.055Z,96951.94
2018-09-21T00:03:40.784Z,96957.05
2018-09-21T00:06:11.277Z,96958.41
2018-09-21T00:08:41.373Z,96963.52
2018-09-21T00:11:11.084Z,96956.20
2018-09-21T00:13:40.607Z,96951.30
2018-09-21T00:16:10.327Z,96949.62
2018-09-21T00:18:40.507Z,96944.70
2018-09-21T00:21:10.317Z,96942.50
2018-09-21T00:23:40.251Z,96936.75
2018-09-21T00:26:10.162Z,96935.40
2018-09-21T00:28:39.746Z,96926.09
2018-09-21T00:31:09.587Z,96927.97
2018-09-21T00:33:39.251Z,96930.67
2018-09-21T00:36:08.954Z,96923.89
2018-09-21T00:38:38.571Z,96923.60
2018-09-21T00:41:08.342Z,96915.13
2018-09-21T00:43:38.094Z,96915.66
2018-09-21T00:46:07.646Z,96913.45
2018-09-21T00:48:37.130Z,96908.03
2018-09-21T00:51:06.710Z,96904.15
2018-09-21T00:53:36.238Z,96906.86
2018-09-21T00:56:06.590Z,96900.59
2018-09-21T00:58:36.109Z,96908.73
2018-09-21T01:01:05.675Z,96904.34
2018-09-21T01:03:35.260Z,96899.43
2018-09-21T01:06:05.194Z,96904.02
2018-09-21T01:08:34.802Z,96902.66
2018-09-21T01:11:04.530Z,96898.27
2018-09-21T01:13:34.198Z,96885.22
2018-09-21T01:16:03.839Z,96885.22
2018-09-21T01:18:33.399Z,96870.30
2018-09-21T01:21:02.898Z,96870.30
2018-09-21T01:23:32.631Z,96860.80
2018-09-21T01:26:02.462Z,96855.36
2018-09-21T01:28:32.683Z,96853.16
2018-09-21T01:31:02.411Z,96849.61
2018-09-21T01:33:32.096Z,96846.37
2018-09-21T01:36:01.862Z,96844.73
2018-09-21T01:38:31.622Z,96835.75
2018-09-21T01:41:01.306Z,96827.29
2018-09-21T01:43:31.057Z,96821.86
2018-09-21T01:48:39.167Z,96818.63
2018-09-21T01:51:09.269Z,96808.62
2018-09-21T01:53:38.854Z,96809.97
2018-09-21T01:56:08.378Z,96811.53
2018-09-21T01:58:37.866Z,96803.38
2018-09-21T02:01:07.496Z,96802.03
2018-09-21T02:03:36.982Z,96796.92
2018-09-21T02:06:07.128Z,96788.14
2018-09-21T02:08:36.736Z,96788.98
2018-09-21T02:11:06.406Z,96791.17
2018-09-21T02:13:36.122Z,96777.28
2018-09-21T02:16:05.654Z,96785.75
2018-09-21T02:18:35.411Z,96777.28
2018-09-21T02:21:05.010Z,96774.57
2018-09-21T02:23:34.598Z,96767.78
2018-09-21T02:26:04.254Z,96763.71
2018-09-21T02:28:33.913Z,96764.55
2018-09-21T02:31:03.425Z,96765.39
2018-09-21T02:33:33.029Z,96753.70
2018-09-21T02:36:02.556Z,96753.70
2018-09-21T02:38:32.482Z,96746.59
2018-09-21T02:41:02.214Z,96743.88
2018-09-21T02:43:32.193Z,96731.15
2018-09-21T02:46:02.182Z,96726.56
2018-09-21T02:48:32.134Z,96730.11
2018-09-21T02:51:01.684Z,96711.12
2018-09-21T02:53:31.570Z,96714.67
2018-09-21T02:56:01.806Z,96711.12
2018-09-21T02:58:31.889Z,96705.49
2018-09-21T03:01:01.539Z,96693.80
2018-09-21T03:03:31.161Z,96690.86
2018-09-21T03:06:00.710Z,96680.32
2018-09-21T03:08:30.237Z,96668.11
2018-09-21T03:11:00.031Z,96666.23
2018-09-21T03:13:29.747Z,96657.25
2018-09-21T03:15:59.351Z,96661.13
2018-09-21T03:18:29.357Z,96657.05
2018-09-21T03:20:59.053Z,96660.09
2018-09-21T03:23:28.810Z,96656.33
2018-09-21T03:25:58.558Z,96652.27
2018-09-21T03:28:28.186Z,96651.74
2018-09-21T03:30:57.879Z,96644.44
2018-09-21T03:33:27.498Z,96636.30
2018-09-21T03:35:57.059Z,96640.37
2018-09-21T03:38:26.867Z,96627.95
2018-09-21T03:40:56.601Z,96623.05
2018-09-21T03:43:26.963Z,96609.80
2018-09-21T03:45:56.508Z,96605.41
2018-09-21T03:48:26.116Z,96598.94
2018-09-21T03:50:56.321Z,96599.45
2018-09-21T03:53:26.029Z,96598.42
2018-09-21T03:55:55.530Z,96596.54
2018-09-21T03:58:25.680Z,96592.47
2018-09-21T04:00:55.477Z,96582.42
2018-09-21T04:03:25.239Z,96578.34
2018-09-21T04:05:56.421Z,96578.34
2018-09-21T04:08:26.842Z,96565.61
2018-09-21T04:10:57.402Z,96560.50
2018-09-21T04:13:27.338Z,96564.58
2018-09-21T04:15:56.966Z,96561.34
2018-09-21T04:18:26.645Z,96555.39
2018-09-21T04:20:56.374Z,96551.00
2018-09-21T04:23:26.202Z,96546.93
2018-09-21T04:25:55.716Z,96541.50
2018-09-21T04:28:25.454Z,96541.50
2018-09-21T04:30:55.447Z,96536.39
2018-09-21T04:33:25.183Z,96531.17
2018-09-21T04:35:55.119Z,96530.65
2018-09-21T04:38:24.703Z,96533.36
2018-09-21T04:40:54.322Z,96521.98
2018-09-21T04:43:24.509Z,96532.01
2018-09-21T04:45:54.734Z,96523.86
2018-09-21T04:48:24.558Z,96526.05
2018-09-21T04:50:54.186Z,96528.45
2018-09-21T04:53:23.791Z,96527.41
2018-09-21T04:55:53.335Z,96522.30
2018-09-21T04:58:23.051Z,96521.98
2018-09-21T05:00:52.683Z,96527.41
2018-09-21T05:03:22.366Z,96524.18
2018-09-21T05:05:51.969Z,96517.71
2018-09-21T05:08:21.519Z,96511.23
2018-09-21T05:10:51.252Z,96509.36
2018-09-21T05:13:23.554Z,96506.45
2018-09-21T05:15:59.114Z,96495.78
2018-09-21T05:18:29.049Z,96504.87
2018-09-21T05:20:58.839Z,96494.84
2018-09-21T05:23:28.502Z,96484.83
2018-09-21T05:25:58.266Z,96482.42
2018-09-21T05:28:27.902Z,96483.55
2018-09-21T05:30:58.387Z,96482.50
2018-09-21T05:33:28.324Z,96479.27
2018-09-21T05:35:58.425Z,96478.67
2018-09-21T05:38:28.024Z,96473.44
2018-09-21T05:40:57.655Z,96471.77
2018-09-21T05:43:27.385Z,96475.01
2018-09-21T05:45:57.128Z,96486.70
2018-09-21T05:48:28.164Z,96472.29
2018-09-21T05:50:59.731Z,96470.63
2018-09-21T05:53:29.690Z,96478.24
2018-09-21T05:55:59.598Z,96470.73
2018-09-21T05:58:29.201Z,96478.56
2018-09-21T06:00:58.945Z,96467.18
2018-09-21T06:03:29.319Z,96468.02
2018-09-21T06:05:58.873Z,96479.39
2018-09-21T06:08:28.571Z,96469.89
2018-09-21T06:10:58.558Z,96473.13
2018-09-21T06:13:28.279Z,96470.20
2018-09-21T06:15:57.925Z,96468.85
2018-09-21T06:18:27.558Z,96470.52
2018-09-21T06:21:04.605Z,96471.87
2018-09-21T06:23:34.455Z,96458.30
2018-09-21T06:26:04.321Z,96453.68
2018-09-21T06:28:34.161Z,96459.11
2018-09-21T06:31:05.369Z,96454.52
2018-09-21T06:33:35.479Z,96452.12
2018-09-21T06:36:05.224Z,96450.03
2018-09-21T06:38:35.171Z,96448.47
2018-09-21T06:41:04.699Z,96455.88
2018-09-21T06:43:35.622Z,96465.38
2018-09-21T06:46:05.435Z,96464.03
2018-09-21T06:48:35.106Z,96453.17
2018-09-21T06:51:04.724Z,96449.93
2018-09-21T06:53:34.302Z,96450.45
2018-09-21T06:56:04.284Z,96461.84
2018-09-21T06:58:34.117Z,96466.22
2018-09-21T07:01:04.078Z,96467.06
2018-09-21T07:03:33.983Z,96452.13
2018-09-21T07:06:04.342Z,96458.08
2018-09-21T07:08:34.081Z,96439.38
2018-09-21T07:11:03.731Z,96438.83
2018-09-21T07:13:33.371Z,96461.91
2018-09-21T07:16:03.324Z,96462.75
2018-09-21T07:18:33.303Z,96461.39
2018-09-21T07:21:03.090Z,96471.20
2018-09-21T07:23:33.430Z,96474.23
2018-09-21T07:26:03.694Z,96473.19
2018-09-21T07:28:33.665Z,96483.84
2018-09-21T07:31:04.746Z,96485.20
2018-09-21T07:33:34.308Z,96488.23
2018-09-21T07:36:04.007Z,96492.31
2018-09-21T07:38:33.637Z,96499.09
2018-09-21T07:41:03.457Z,96497.95
2018-09-21T07:43:33.498Z,96491.16
2018-09-21T07:46:03.254Z,96459.41
2018-09-21T07:48:33.704Z,96458.36
2018-09-21T07:51:03.296Z,96465.47
2018-09-21T07:53:33.331Z,96475.81
2018-09-21T07:56:03.157Z,96466.83
2018-09-21T07:58:33.278Z,96476.86
2018-09-21T08:01:02.965Z,96479.88
2018-09-21T08:03:33.159Z,96482.59
2018-09-21T08:06:02.810Z,96466.31
2018-09-21T08:08:33.857Z,96463.94
2018-09-21T08:11:03.469Z,96454.43
2018-09-21T08:13:33.355Z,96457.75
2018-09-21T08:16:04.431Z,96460.98
2018-09-21T08:18:34.034Z,96457.75
2018-09-21T08:21:03.723Z,96457.22
2018-09-21T08:23:33.684Z,96462.66
2018-09-21T08:26:03.732Z,96461.61
2018-09-21T08:31:32.421Z,96440.20
2018-09-21T08:34:02.671Z,96431.01
2018-09-21T08:36:33.956Z,96436.23
2018-09-21T08:39:03.821Z,96431.32
2018-09-21T08:41:33.738Z,96436.55
2018-09-21T08:44:03.421Z,96440.93
2018-09-21T08:46:34.121Z,96443.33
2018-09-21T08:49:03.690Z,96443.64
2018-09-21T08:51:33.349Z,96447.16
2018-09-21T08:54:03.110Z,96451.03
2018-09-21T08:56:33.837Z,96427.95
2018-09-21T08:59:03.772Z,96420.63
2018-09-21T09:01:35.465Z,96436.09
2018-09-21T09:04:05.278Z,96441.52
2018-09-21T09:06:34.893Z,96451.55
2018-09-21T09:09:06.279Z,96459.81
2018-09-21T09:11:36.085Z,96460.02
2018-09-21T09:14:05.935Z,96468.69
2018-09-21T09:16:36.235Z,96489.58
2018-09-21T09:19:06.196Z,96526.77
2018-09-21T09:21:35.867Z,96569.63
2018-09-21T09:24:06.479Z,96579.66
2018-09-21T09:26:37.176Z,96616.52
2018-09-21T09:29:08.224Z,96633.22
2018-09-21T09:31:37.974Z,96668.97
2018-09-21T09:34:08.516Z,96692.74
2018-09-21T09:36:40.059Z,96691.98
2018-09-21T09:39:13.156Z,96718.42
2018-09-21T09:41:43.471Z,96699.49
2018-09-21T09:44:13.239Z,96717.02
2018-09-21T09:46:43.050Z,96706.28
2018-09-21T09:49:13.027Z,96712.94
2018-09-21T09:51:42.994Z,96715.77
2018-09-21T09:54:12.525Z,96708.23
2018-09-21T09:56:42.035Z,96726.27
2018-09-21T09:59:11.590Z,96719.91
2018-09-21T10:01:41.815Z,96719.99
2018-09-21T10:04:11.776Z,96715.51
2018-09-21T10:06:42.358Z,96725.53
2018-09-21T10:09:13.086Z,96726.76
2018-09-21T10:11:42.891Z,96729.16
2018-09-21T10:14:12.763Z,96723.28
2018-09-21T10:16:43.041Z,96739.80
2018-09-21T10:19:13.267Z,96736.24
2018-09-21T10:21:43.302Z,96733.73
2018-09-21T10:24:13.486Z,96724.63
2018-09-21T10:26:43.663Z,96733.28
2018-09-21T10:29:13.851Z,96726.41
2018-09-21T10:31:43.628Z,96727.44
2018-09-21T10:34:14.521Z,96738.81
2018-09-21T10:36:44.365Z,96740.36
2018-09-21T10:39:14.251Z,96738.69
2018-09-21T10:41:43.694Z,96733.45
2018-09-21T10:44:13.179Z,96732.62
2018-09-21T10:46:42.935Z,96739.40
2018-09-21T10:49:13.252Z,96740.44
2018-09-21T10:51:43.273Z,96754.00
2018-09-21T10:54:13.253Z,96740.63
2018-09-21T10:56:43.440Z,96750.67
2018-09-21T10:59:13.140Z,96744.93
2018-09-21T11:01:43.352Z,96733.05
2018-09-21T11:04:13.207Z,96727.30
2018-09-21T11:06:43.180Z,96728.33
2018-09-21T11:09:12.835Z,96731.56
2018-09-21T11:11:43.819Z,96734.47
2018-09-21T11:14:14.247Z,96732.27
2018-09-21T11:16:44.065Z,96736.34
2018-09-21T11:22:11.346Z,96726.02
2018-09-21T11:24:41.038Z,96728.20
2018-09-21T11:27:10.718Z,96735.19
2018-09-21T11:29:40.372Z,96756.36
2018-09-21T11:32:10.467Z,96751.45
2018-09-21T11:34:40.228Z,96754.81
2018-09-21T11:37:10.391Z,96739.89
2018-09-21T11:39:40.767Z,96741.45
2018-09-21T11:42:10.466Z,96745.32
2018-09-21T11:44:40.159Z,96748.88
2018-09-21T11:47:10.006Z,96749.06
2018-09-21T11:49:40.029Z,96755.33
2018-09-21T11:52:10.169Z,96752.74
2018-09-21T11:54:40.033Z,96751.29
2018-09-21T11:57:09.691Z,96752.25
2018-09-21T11:59:39.897Z,96748.83
2018-09-21T12:02:20.331Z,96751.11
2018-09-21T12:04:50.248Z,96758.73
2018-09-21T12:07:20.360Z,96757.50
2018-09-21T12:09:51.474Z,96766.28
2018-09-21T12:12:21.659Z,96760.34
2018-09-21T12:14:51.576Z,96768.28
2018-09-21T12:17:21.730Z,96766.60
2018-09-21T12:19:51.823Z,96764.53
2018-09-21T12:22:21.772Z,96772.67
2018-09-21T12:24:53.521Z,96749.61
2018-09-21T12:27:23.379Z,96757.11
2018-09-21T12:29:53.190Z,96766.92
2018-09-21T12:32:23.193Z,96772.55
2018-09-21T12:34:53.288Z,96776.49
2018-09-21T12:37:23.101Z,96776.37
2018-09-21T12:39:54.171Z,96782.63
2018-09-21T12:42:24.088Z,96793.81
2018-09-21T12:44:55.211Z,96790.77
2018-09-21T12:47:25.147Z,96790.97
2018-09-21T12:49:55.490Z,96797.75
2018-09-21T12:52:27.421Z,96804.77
2018-09-21T12:54:57.831Z,96813.74
2018-09-21T12:57:27.767Z,96804.02
2018-09-21T12:59:57.759Z,96811.96
2018-09-21T13:02:27.573Z,96831.98
2018-09-21T13:04:57.732Z,96833.02
2018-09-21T13:07:27.558Z,96831.37
2018-09-21T13:09:58.445Z,96842.42
2018-09-21T13:12:28.540Z,96844.30
2018-09-21T13:14:59.900Z,96846.81
2018-09-21T13:17:30.496Z,96864.64
2018-09-21T13:20:02.602Z,96871.23
2018-09-21T13:22:32.510Z,96877.78
2018-09-21T13:25:03.475Z,96877.27
2018-09-21T13:27:34.721Z,96879.69
2018-09-21T13:30:17.989Z,96876.98
2018-09-21T13:32:49.696Z,96883.44
2018-09-21T13:35:21.295Z,96885.83
2018-09-21T13:37:52.445Z,96889.38
2018-09-21T13:40:24.337Z,96893.45
2018-09-21T13:42:54.014Z,96896.69
2018-09-21T13:45:24.171Z,96892.94
2018-09-21T13:47:54.251Z,96906.50
2018-09-21T13:50:24.675Z,96908.70
2018-09-21T13:52:54.622Z,96905.66
2018-09-21T13:55:24.659Z,96906.17
2018-09-21T13:57:55.192Z,96903.47
2018-09-21T14:00:25.513Z,96911.92
2018-09-21T14:02:58.015Z,96920.06
2018-09-21T14:05:29.397Z,96917.35
2018-09-21T14:08:00.484Z,96916.84
2018-09-21T14:10:30.272Z,96917.35
2018-09-21T14:13:00.253Z,96924.98
2018-09-21T14:15:31.511Z,96948.88
2018-09-21T14:18:01.901Z,96937.70
2018-09-21T14:20:32.520Z,96935.31
2018-09-21T14:23:02.807Z,96946.16
2018-09-21T14:25:32.779Z,96948.55
2018-09-21T14:28:03.292Z,96950.75
2018-09-21T14:30:32.815Z,96945.33
2018-09-21T14:33:02.644Z,96940.93
2018-09-21T14:35:32.271Z,96953.98
2018-09-21T14:38:03.185Z,96954.50
2018-09-21T14:40:33.384Z,96956.05
2018-09-21T14:43:04.230Z,96961.47
2018-09-21T14:45:34.287Z,96961.47
2018-09-21T14:48:03.809Z,96966.77
2018-09-21T14:50:34.566Z,96968.12
2018-09-21T14:53:07.827Z,96970.64
2018-09-21T14:55:37.704Z,96973.67
2018-09-21T14:58:07.720Z,96970.26
2018-09-21T15:00:38.558Z,96970.88
2018-09-21T15:05:40.128Z,96983.68
2018-09-21T15:08:10.104Z,96991.41
2018-09-21T15:10:40.089Z,96976.48
2018-09-21T15:13:09.666Z,96993.60
2018-09-21T15:15:39.811Z,96992.24
2018-09-21T15:18:09.664Z,96984.75
2018-09-21T15:20:39.170Z,96991.21
2018-09-21T15:23:09.761Z,96993.92
2018-09-21T15:25:39.794Z,97001.64
2018-09-21T15:30:41.128Z,97005.44
2018-09-21T15:33:11.202Z,97014.09
2018-09-21T15:35:41.846Z,97015.78
2018-09-21T15:38:11.679Z,97018.49
2018-09-21T15:40:41.347Z,97021.53
2018-09-21T15:43:11.330Z,97020.36
2018-09-21T15:45:41.413Z,97027.15
2018-09-21T15:48:11.338Z,97026.50
2018-09-21T15:50:41.110Z,97026.20
2018-09-21T15:53:11.733Z,97031.30
2018-09-21T15:55:42.699Z,97029.30
2018-09-21T15:58:12.297Z,97038.98
2018-09-21T16:00:42.741Z,97033.55
2018-09-21T16:03:14.312Z,97024.06
2018-09-21T16:05:45.993Z,97040.52
2018-09-21T16:08:16.584Z,97050.53
2018-09-21T16:10:46.429Z,97050.72
2018-09-21T16:13:16.430Z,97053.33
2018-09-21T16:15:47.195Z,97058.95
2018-09-21T16:18:17.280Z,97055.06
2018-09-21T16:20:47.661Z,97058.81
2018-09-21T16:23:18.269Z,97069.33
2018-09-21T16:25:48.585Z,97067.87
2018-09-21T16:28:18.379Z,97075.67
2018-09-21T16:30:48.456Z,97076.38
2018-09-21T16:33:18.630Z,97071.33
2018-09-21T16:35:48.395Z,97077.78
2018-09-21T16:38:18.565Z,97081.52
2018-09-21T16:40:48.991Z,97085.97
2018-09-21T16:43:18.803Z,97083.77
2018-09-21T16:45:56.700Z,97081.75
2018-09-21T16:48:29.279Z,97082.97
2018-09-21T16:50:59.148Z,97084.84
2018-09-21T16:53:29.846Z,97079.93
2018-09-21T16:55:59.663Z,97082.86
2018-09-21T16:58:30.803Z,97087.11
2018-09-21T17:01:01.424Z,97088.66
2018-09-21T17:03:32.401Z,97086.45
2018-09-21T17:06:05.506Z,97092.91
2018-09-21T17:08:35.714Z,97097.67
2018-09-21T17:11:06.497Z,97099.55
2018-09-21T17:13:36.180Z,97105.19
2018-09-21T17:16:05.837Z,97107.05
2018-09-21T17:18:35.670Z,97108.59
2018-09-21T17:21:07.049Z,97108.08
2018-09-21T17:23:37.408Z,97128.08
2018-09-21T17:26:07.102Z,97127.75
2018-09-21T17:28:37.013Z,97140.14
2018-09-21T17:31:06.723Z,97140.50
2018-09-21T17:33:37.284Z,97138.19
2018-09-21T17:36:08.092Z,97143.47
2018-09-21T17:40:59.608Z,97142.69
2018-09-21T17:43:29.771Z,97152.70
2018-09-21T17:46:00.870Z,97154.74
2018-09-21T17:48:30.950Z,97168.30
2018-09-21T17:51:01.173Z,97170.86
2018-09-21T17:53:30.811Z,97164.59
2018-09-21T17:56:00.623Z,97171.22
2018-09-21T17:58:30.547Z,97175.50
2018-09-21T18:01:01.094Z,97174.66
2018-09-21T18:03:31.409Z,97184.83
2018-09-21T18:06:00.793Z,97186.70
2018-09-21T18:08:30.693Z,97183.84
2018-09-21T18:11:00.663Z,97194.35
2018-09-21T18:13:30.663Z,97194.23
2018-09-21T18:16:01.272Z,97210.49
2018-09-21T18:18:31.755Z,97209.31
2018-09-21T18:21:02.774Z,97216.60
2018-09-21T18:23:32.974Z,97213.56
2018-09-21T18:26:11.446Z,97220.52
2018-09-21T18:28:41.273Z,97225.60
2018-09-21T18:31:11.887Z,97234.42
2018-09-21T18:33:42.202Z,97227.86
2018-09-21T18:36:12.092Z,97236.50
2018-09-21T18:38:42.245Z,97228.55
2018-09-21T18:41:12.407Z,97228.73
2018-09-21T18:43:43.435Z,97236.85
2018-09-21T18:46:14.574Z,97237.03
2018-09-21T18:48:45.674Z,97241.61
2018-09-21T18:51:15.445Z,97255.16
2018-09-21T18:53:45.072Z,97257.53
2018-09-21T18:56:15.720Z,97255.33
2018-09-21T18:58:46.424Z,97267.52
2018-09-21T19:01:16.550Z,97284.62
2018-09-21T19:03:47.425Z,97289.20
2018-09-21T19:06:18.457Z,97291.27
2018-09-21T19:08:48.364Z,97293.98
2018-09-21T19:11:18.710Z,97298.55
2018-09-21T19:13:49.510Z,97313.12
2018-09-21T19:16:19.547Z,97309.05
2018-09-21T19:18:50.268Z,97323.28
2018-09-21T19:21:20.792Z,97325.48
2018-09-21T19:23:51.329Z,97333.09
2018-09-21T19:26:21.248Z,97339.88
2018-09-21T19:28:51.101Z,97347.16
2018-09-21T19:34:01.565Z,97344.62
2018-09-21T19:36:31.295Z,97336.83
2018-09-21T19:39:01.407Z,97339.20
2018-09-21T19:41:34.299Z,97349.70
2018-09-21T19:44:05.702Z,97353.77
2018-09-21T19:46:35.961Z,97360.55
2018-09-21T19:49:06.299Z,97353.44
2018-09-21T19:51:35.865Z,97358.85
2018-09-21T19:54:06.083Z,97356.66
2018-09-21T19:56:36.140Z,97370.70
2018-09-21T19:59:10.443Z,97377.17
2018-09-21T20:01:40.906Z,97372.27
2018-09-21T20:04:12.335Z,97372.78
2018-09-21T20:06:42.294Z,97372.78
2018-09-21T20:09:13.271Z,97379.21
2018-09-21T20:11:44.084Z,97379.55
2018-09-21T20:14:14.636Z,97376.50
2018-09-21T20:16:45.218Z,97390.89
2018-09-21T20:19:16.583Z,97387.00
2018-09-21T20:21:46.492Z,97396.81
2018-09-21T20:24:18.875Z,97395.13
2018-09-21T20:26:49.735Z,97407.31
2018-09-21T20:29:21.246Z,97388.36
2018-09-21T20:31:56.196Z,97413.24
2018-09-21T20:34:26.896Z,97407.83
2018-09-21T20:36:57.877Z,97411.55
2018-09-21T20:39:28.267Z,97409.69
2018-09-21T20:42:04.182Z,97419.68
2018-09-21T20:44:34.405Z,97426.95
2018-09-21T20:47:05.211Z,97426.95
2018-09-21T20:49:35.121Z,97430.69
2018-09-21T20:52:04.857Z,97437.97
2018-09-21T20:54:35.534Z,97442.88
2018-09-21T20:57:05.580Z,97432.72
2018-09-21T20:59:35.662Z,97423.23
2018-09-21T21:02:06.719Z,97443.89
2018-09-21T21:04:37.051Z,97436.78
2018-09-21T21:07:07.704Z,97442.74
2018-09-21T21:09:38.380Z,97446.80
2018-09-21T21:12:08.875Z,97463.23
2018-09-21T21:14:38.692Z,97441.90
2018-09-21T21:17:08.882Z,97450.02
2018-09-21T21:19:39.770Z,97451.04
2018-09-21T21:22:09.569Z,97450.88
2018-09-21T21:24:39.646Z,97449.52
2018-09-21T21:27:10.109Z,97449.01
2018-09-21T21:29:40.819Z,97454.94
2018-09-21T21:32:10.442Z,97460.35
2018-09-21T21:34:40.187Z,97464.55
2018-09-21T21:37:10.035Z,97462.36
2018-09-21T21:39:40.091Z,97463.87
2018-09-21T21:42:09.677Z,97473.86
2018-09-21T21:44:40.131Z,97474.71
2018-09-21T21:47:10.419Z,97467.30
2018-09-21T21:49:40.218Z,97475.09
2018-09-21T21:52:10.406Z,97488.28
2018-09-21T21:54:40.513Z,97488.80
2018-09-21T21:57:12.139Z,97494.89
2018-09-21T21:59:42.183Z,97500.30
2018-09-21T22:02:13.142Z,97506.40
2018-09-21T22:04:43.118Z,97510.13
2018-09-21T22:07:13.526Z,97510.32
2018-09-21T22:09:43.223Z,97524.16
2018-09-21T22:12:18.080Z,97515.73
2018-09-21T22:14:49.297Z,97517.59
2018-09-21T22:17:19.383Z,97523.52
2018-09-21T22:19:49.172Z,97516.08
2018-09-21T22:22:19.186Z,97522.34
2018-09-21T22:24:48.978Z,97524.20
2018-09-21T22:27:18.626Z,97520.14
2018-09-21T22:29:48.175Z,97528.42
2018-09-21T22:32:18.121Z,97528.94
2018-09-21T22:34:48.084Z,97543.32
2018-09-21T22:37:18.002Z,97540.10
2018-09-21T22:39:48.149Z,97537.56
2018-09-21T22:42:18.240Z,97536.55
2018-09-21T22:44:47.969Z,97546.20
2018-09-21T22:47:18.523Z,97543.48
2018-09-21T22:49:48.283Z,97562.78
2018-09-21T22:52:17.915Z,97558.55
2018-09-21T22:54:48.490Z,97559.39
2018-09-21T22:57:18.282Z,97569.20
2018-09-21T22:59:47.927Z,97565.14
2018-09-21T23:02:17.638Z,97557.02
2018-09-21T23:04:47.595Z,97568.02
2018-09-21T23:07:17.511Z,97565.31
2018-09-21T23:09:47.130Z,97561.59
2018-09-21T23:12:17.115Z,97567.52
2018-09-21T23:14:46.833Z,97568.02
2018-09-21T23:17:16.310Z,97571.23
2018-09-21T23:19:45.853Z,97569.88
2018-09-21T23:22:16.463Z,97564.67
2018-09-21T23:24:46.408Z,97582.60
2018-09-21T23:27:16.546Z,97578.84
2018-09-21T23:29:46.145Z,97586.67
2018-09-21T23:32:15.771Z,97581.42
2018-09-21T23:34:45.636Z,97591.56
2018-09-21T23:37:15.832Z,97592.08
2018-09-21T23:39:47.711Z,97600.03
2018-09-21T23:42:18.108Z,97596.98
2018-09-21T23:44:48.078Z,97603.23
2018-09-21T23:47:17.629Z,97608.16
2018-09-21T23:49:47.334Z,97601.04
2018-09-21T23:52:17.709Z,97613.22
2018-09-21T23:54:47.519Z,97607.97
2018-09-21T23:57:17.265Z,97619.65
2018-09-21T23:59:47.272Z,97614.91
